createdAt,value
2019-01-04T00:02:01.965Z,61.63
2019-01-04T00:04:44.269Z,56.57
2019-01-04T00:07:29.925Z,59.67
2019-01-04T00:10:12.360Z,77.27
2019-01-04T00:12:57.368Z,70.63
2019-01-04T00:15:38.911Z,70.77
2019-01-04T00:18:29.238Z,64.37
2019-01-04T00:21:14.729Z,66.20
2019-01-04T00:23:57.859Z,58.77
2019-01-04T00:26:45.788Z,58.17
2019-01-04T00:29:26.985Z,60.53
2019-01-04T00:32:11.794Z,56.83
2019-01-04T00:34:52.995Z,57.27
2019-01-04T00:37:51.995Z,59.43
2019-01-04T00:40:34.730Z,58.50
2019-01-04T00:43:18.732Z,59.83
2019-01-04T00:46:04.974Z,57.40
2019-01-04T00:48:48.408Z,61.07
2019-01-04T00:51:35.833Z,56.67
2019-01-04T00:54:19.524Z,63.27
2019-01-04T00:57:38.333Z,61.63
2019-01-04T01:01:18.226Z,63.20
2019-01-04T01:04:22.877Z,68.47
2019-01-04T01:07:47.736Z,64.73
2019-01-04T01:11:12.681Z,63.00
2019-01-04T01:14:26.889Z,60.23
2019-01-04T01:17:39.022Z,60.17
2019-01-04T01:20:51.981Z,68.77
2019-01-04T01:24:09.911Z,66.10
2019-01-04T01:27:26.566Z,65.93
2019-01-04T01:30:39.491Z,69.20
2019-01-04T01:33:50.880Z,69.37
2019-01-04T01:37:23.418Z,68.33
2019-01-04T01:40:56.312Z,68.90
2019-01-04T01:44:19.373Z,71.50
2019-01-04T01:47:11.087Z,67.83
2019-01-04T01:50:45.578Z,69.87
2019-01-04T01:53:27.421Z,68.20
2019-01-04T01:56:14.589Z,64.43
2019-01-04T01:58:58.898Z,66.77
2019-01-04T02:01:42.377Z,71.80
2019-01-04T02:04:25.522Z,71.43
2019-01-04T02:07:10.732Z,68.57
2019-01-04T02:09:53.901Z,73.67
2019-01-04T02:12:39.750Z,69.60
2019-01-04T02:15:23.794Z,69.93
2019-01-04T02:18:05.688Z,68.57
2019-01-04T02:20:51.626Z,67.57
2019-01-04T02:23:35.979Z,63.37
2019-01-04T02:26:19.410Z,69.43
2019-01-04T02:29:04.688Z,71.20
2019-01-04T02:31:47.461Z,63.73
2019-01-04T02:34:31.554Z,61.73
2019-01-04T02:37:15.088Z,61.67
2019-01-04T02:39:59.052Z,62.60
2019-01-04T02:42:43.170Z,60.90
2019-01-04T02:45:28.041Z,64.20
2019-01-04T02:48:13.583Z,70.47
2019-01-04T02:50:56.766Z,67.60
2019-01-04T02:53:40.801Z,62.97
2019-01-04T02:56:24.801Z,58.60
2019-01-04T02:59:09.777Z,58.67
2019-01-04T03:02:00.007Z,61.10
2019-01-04T03:04:48.050Z,60.63
2019-01-04T03:07:32.097Z,52.57
2019-01-04T03:10:14.911Z,49.40
2019-01-04T03:13:00.446Z,51.43
2019-01-04T03:15:45.776Z,67.73
2019-01-04T03:18:33.509Z,59.67
2019-01-04T03:21:22.079Z,54.23
2019-01-04T03:24:07.744Z,48.23
2019-01-04T03:26:50.831Z,58.03
2019-01-04T03:29:34.914Z,57.30
2019-01-04T03:32:16.469Z,54.30
2019-01-04T03:34:59.934Z,48.37
2019-01-04T03:37:45.824Z,54.20
2019-01-04T03:40:30.111Z,57.23
2019-01-04T03:43:16.639Z,50.60
2019-01-04T03:46:00.113Z,50.47
2019-01-04T03:48:43.856Z,53.00
2019-01-04T03:51:30.626Z,54.00
2019-01-04T03:54:21.425Z,53.70
2019-01-04T03:57:03.020Z,54.70
2019-01-04T03:59:45.154Z,57.00
2019-01-04T04:02:31.465Z,54.87
2019-01-04T04:05:17.046Z,53.43
2019-01-04T04:08:02.579Z,49.53
2019-01-04T04:10:45.162Z,49.77
2019-01-04T04:13:28.836Z,57.93
2019-01-04T04:16:15.038Z,47.73
2019-01-04T04:18:58.821Z,50.73
2019-01-04T04:21:43.129Z,46.57
2019-01-04T04:24:31.518Z,48.47
2019-01-04T04:27:15.520Z,46.23
2019-01-04T04:29:59.878Z,48.27
2019-01-04T04:32:44.845Z,44.60
2019-01-04T04:35:36.000Z,54.57
2019-01-04T04:38:26.457Z,48.83
2019-01-04T04:41:13.142Z,44.10
2019-01-04T04:44:01.043Z,43.70
2019-01-04T04:46:46.581Z,45.60
2019-01-04T04:49:31.549Z,45.07
2019-01-04T04:52:15.597Z,55.10
2019-01-04T04:54:59.082Z,69.17
2019-01-04T04:57:43.122Z,51.73
2019-01-04T05:00:30.546Z,47.37
2019-01-04T05:03:18.902Z,43.20
2019-01-04T05:06:03.727Z,41.57
2019-01-04T05:08:46.026Z,45.30
2019-01-04T05:11:30.112Z,46.57
2019-01-04T05:14:17.548Z,48.87
2019-01-04T05:17:05.218Z,47.70
2019-01-04T05:19:51.180Z,45.47
2019-01-04T05:22:35.229Z,45.63
2019-01-04T05:25:17.676Z,59.90
2019-01-04T05:28:07.223Z,47.57
2019-01-04T05:30:54.999Z,45.33
2019-01-04T05:33:43.187Z,42.73
2019-01-04T05:36:29.197Z,55.07
2019-01-04T05:39:19.154Z,59.67
2019-01-04T05:42:08.692Z,51.90
2019-01-04T05:44:53.656Z,47.13
2019-01-04T05:47:43.539Z,47.77
2019-01-04T05:50:38.077Z,50.87
2019-01-04T05:53:22.070Z,48.37
2019-01-04T05:56:09.262Z,49.07
2019-01-04T05:58:51.701Z,46.37
2019-01-04T06:01:35.751Z,45.73
2019-01-04T06:04:21.684Z,48.93
2019-01-04T06:07:06.605Z,49.77
2019-01-04T06:09:51.005Z,52.10
2019-01-04T06:12:36.216Z,49.53
2019-01-04T06:15:19.672Z,45.87
2019-01-04T06:18:04.069Z,43.57
2019-01-04T06:21:16.685Z,45.70
2019-01-04T06:24:03.810Z,46.20
2019-01-04T06:26:53.081Z,47.37
2019-01-04T06:29:39.533Z,49.03
2019-01-04T06:32:23.025Z,47.00
2019-01-04T06:35:08.545Z,104.73
2019-01-04T06:38:04.009Z,53.47
2019-01-04T06:40:48.293Z,47.17
2019-01-04T06:43:43.160Z,46.87
2019-01-04T06:46:29.239Z,50.97
2019-01-04T06:49:18.888Z,49.00
2019-01-04T06:52:06.621Z,56.43
2019-01-04T06:55:20.165Z,49.30
2019-01-04T06:58:03.270Z,48.00
2019-01-04T07:00:51.991Z,48.67
2019-01-04T07:03:37.269Z,48.17
2019-01-04T07:06:23.302Z,45.60
2019-01-04T07:09:15.139Z,46.10
2019-01-04T07:12:00.110Z,47.67
2019-01-04T07:14:47.318Z,47.30
2019-01-04T07:17:38.074Z,47.47
2019-01-04T07:20:30.118Z,45.63
2019-01-04T07:23:16.329Z,46.63
2019-01-04T07:26:06.808Z,45.03
2019-01-04T07:28:51.157Z,46.67
2019-01-04T07:31:37.011Z,47.60
2019-01-04T07:34:24.126Z,43.57
2019-01-04T07:37:05.148Z,46.37
2019-01-04T07:39:50.729Z,47.03
2019-01-04T07:42:39.996Z,45.37
2019-01-04T07:45:31.677Z,46.83
2019-01-04T07:48:15.155Z,45.47
2019-01-04T07:51:00.123Z,46.47
2019-01-04T07:53:43.863Z,47.20
2019-01-04T07:56:30.678Z,48.87
2019-01-04T07:59:12.219Z,50.83
2019-01-04T08:01:57.187Z,50.10
2019-01-04T08:04:44.612Z,47.30
2019-01-04T08:07:30.857Z,49.63
2019-01-04T08:10:15.780Z,46.97
2019-01-04T08:13:01.340Z,57.77
2019-01-04T08:15:48.363Z,54.63
2019-01-04T08:18:33.807Z,53.43
2019-01-04T08:21:19.038Z,51.13
2019-01-04T08:24:38.146Z,48.60
2019-01-04T08:27:22.181Z,48.57
2019-01-04T08:30:07.159Z,50.10
2019-01-04T08:32:52.743Z,48.67
2019-01-04T08:35:35.255Z,48.07
2019-01-04T08:38:18.033Z,46.70
2019-01-04T08:41:03.588Z,56.47
2019-01-04T08:43:50.725Z,46.47
2019-01-04T08:46:35.129Z,48.70
2019-01-04T08:49:20.666Z,47.33
2019-01-04T08:52:03.177Z,47.57
2019-01-04T08:54:45.344Z,52.13
2019-01-04T08:57:29.163Z,51.13
2019-01-04T09:00:12.291Z,49.13
2019-01-04T09:02:56.397Z,49.10
2019-01-04T09:05:43.147Z,50.17
2019-01-04T09:08:28.688Z,50.10
2019-01-04T09:11:17.409Z,51.77
2019-01-04T09:14:01.698Z,55.90
2019-01-04T09:16:45.175Z,51.83
2019-01-04T09:19:30.755Z,53.47
2019-01-04T09:22:15.846Z,51.33
2019-01-04T09:25:01.003Z,49.60
2019-01-04T09:27:45.354Z,51.13
2019-01-04T09:30:30.935Z,51.67
2019-01-04T09:33:15.860Z,50.57
2019-01-04T09:36:02.413Z,52.83
2019-01-04T09:38:45.227Z,53.90
2019-01-04T09:41:45.864Z,52.63
2019-01-04T09:44:28.022Z,55.07
2019-01-04T09:47:15.434Z,50.07
2019-01-04T09:50:03.182Z,52.37
2019-01-04T09:52:52.145Z,49.37
2019-01-04T09:55:44.291Z,53.77
2019-01-04T09:58:33.328Z,53.07
2019-01-04T10:01:16.448Z,52.30
2019-01-04T10:04:02.451Z,57.17
2019-01-04T10:06:49.324Z,52.10
2019-01-04T10:09:33.935Z,54.27
2019-01-04T10:12:24.171Z,54.33
2019-01-04T10:15:14.375Z,60.13
2019-01-04T10:17:53.186Z,56.37
2019-01-04T10:20:39.383Z,55.13
2019-01-04T10:23:26.742Z,54.07
2019-01-04T10:26:11.164Z,55.13
2019-01-04T10:29:05.931Z,57.60
2019-01-04T10:31:50.270Z,69.60
2019-01-04T10:34:34.374Z,65.93
2019-01-04T10:37:18.985Z,68.17
2019-01-04T10:40:11.004Z,68.10
2019-01-04T10:42:51.377Z,70.67
2019-01-04T10:45:37.922Z,80.83
2019-01-04T10:48:25.919Z,79.57
2019-01-04T10:51:09.396Z,81.47
2019-01-04T10:54:04.810Z,83.00
2019-01-04T10:56:47.935Z,79.90
2019-01-04T10:59:34.446Z,71.07
2019-01-04T11:02:17.872Z,67.40
2019-01-04T11:05:10.737Z,68.53
2019-01-04T11:08:00.165Z,81.40
2019-01-04T11:10:41.383Z,84.60
2019-01-04T11:13:35.613Z,77.87
2019-01-04T11:16:22.944Z,69.60
2019-01-04T11:19:11.338Z,66.47
2019-01-04T11:21:58.416Z,70.57
2019-01-04T11:25:05.238Z,66.10
2019-01-04T11:28:20.536Z,66.60
2019-01-04T11:31:39.946Z,69.07
2019-01-04T11:35:07.363Z,70.03
2019-01-04T11:38:34.376Z,72.50
2019-01-04T11:41:57.122Z,76.60
2019-01-04T11:45:18.035Z,73.37
2019-01-04T11:48:44.518Z,68.90
2019-01-04T11:51:52.490Z,66.80
2019-01-04T11:54:49.430Z,67.13
2019-01-04T11:57:44.537Z,69.73
2019-01-04T12:00:35.040Z,67.20
2019-01-04T12:03:31.416Z,64.27
2019-01-04T12:06:24.982Z,83.67
2019-01-04T12:09:21.934Z,73.73
2019-01-04T12:12:16.427Z,69.53
2019-01-04T12:15:02.315Z,70.37
2019-01-04T12:18:19.113Z,134.10
2019-01-04T12:21:56.429Z,105.53
2019-01-04T13:35:53.554Z,65.47
2019-01-04T16:42:37.801Z,66.07
2019-01-04T16:49:25.784Z,71.83
2019-01-04T16:52:34.255Z,73.10
2019-01-04T16:55:26.786Z,71.83
2019-01-04T17:02:27.207Z,71.73
2019-01-04T17:05:37.629Z,70.03
2019-01-04T17:15:57.302Z,73.50
2019-01-04T17:18:53.293Z,70.53
2019-01-04T17:22:03.185Z,74.10
2019-01-04T17:25:43.098Z,71.73
2019-01-04T17:31:42.568Z,67.60
2019-01-04T17:38:39.821Z,70.97
2019-01-04T17:41:27.746Z,68.70
2019-01-04T17:54:21.286Z,69.53
2019-01-04T18:01:19.742Z,67.83
2019-01-04T18:08:14.160Z,66.43
2019-01-04T18:14:00.334Z,66.57
2019-01-04T18:16:50.128Z,68.77
2019-01-04T18:19:35.802Z,68.93
2019-01-04T18:25:51.510Z,71.60
2019-01-04T18:28:42.315Z,70.23
2019-01-04T18:32:26.321Z,81.47
2019-01-04T18:42:22.830Z,76.00
2019-01-04T18:52:42.819Z,69.37
2019-01-04T18:55:27.811Z,72.07
2019-01-04T19:11:02.145Z,69.33
2019-01-04T19:13:41.366Z,70.30
2019-01-04T19:16:45.914Z,67.70
2019-01-04T19:23:44.009Z,66.57
2019-01-04T19:27:02.981Z,66.20
2019-01-04T19:30:12.084Z,67.63
